Terminal Aerodrome Forecast
Issued by NWS

Home | Current Version | Previous Version | Graphics & Text | Print | Product List | Glossary On
Versions: 1 2 3 4 5 6 7 8 9 10 11 12 13 14 15 16
000
FTUS43 KICT 251601 AAA
TAFSLN
TAF AMD
KSLN 251601Z 2516/2612 03015KT P6SM BKN050
     FM251630 03015G22KT P6SM OVC100
     FM251900 03022G32KT P6SM SCT050 OVC100
     FM252200 02022G32KT 6SM -RA SCT015 OVC025
     FM260400 36013KT P6SM SCT025 BKN100=

USA.gov is the U.S. government's official web portal to all federal, state and local government web resources and services.